sensor_id;sensor_type;location;lat;lon;timestamp;temperature;humidity
66213;SHT31;53015;50.046;8.238;2024-01-10T00:00:58;-2.38;63.47
66213;SHT31;53015;50.046;8.238;2024-01-10T00:03:25;-2.43;64.42
66213;SHT31;53015;50.046;8.238;2024-01-10T00:05:51;-2.53;64.55
66213;SHT31;53015;50.046;8.238;2024-01-10T00:08:17;-2.40;66.16
66213;SHT31;53015;50.046;8.238;2024-01-10T00:10:42;-2.45;65.78
66213;SHT31;53015;50.046;8.238;2024-01-10T00:13:08;-2.47;66.27
66213;SHT31;53015;50.046;8.238;2024-01-10T00:15:34;-2.41;66.53
66213;SHT31;53015;50.046;8.238;2024-01-10T00:17:59;-2.66;65.69
66213;SHT31;53015;50.046;8.238;2024-01-10T00:20:26;-2.72;65.97
66213;SHT31;53015;50.046;8.238;2024-01-10T00:22:52;-2.75;66.25
66213;SHT31;53015;50.046;8.238;2024-01-10T00:25:17;-2.83;66.63
66213;SHT31;53015;50.046;8.238;2024-01-10T00:27:43;-2.71;66.12
66213;SHT31;53015;50.046;8.238;2024-01-10T00:30:08;-2.66;66.01
66213;SHT31;53015;50.046;8.238;2024-01-10T00:32:34;-2.75;65.97
66213;SHT31;53015;50.046;8.238;2024-01-10T00:34:59;-2.69;65.87
66213;SHT31;53015;50.046;8.238;2024-01-10T00:37:27;-2.60;66.41
66213;SHT31;53015;50.046;8.238;2024-01-10T00:39:52;-2.83;65.87
66213;SHT31;53015;50.046;8.238;2024-01-10T00:42:18;-2.88;66.01
66213;SHT31;53015;50.046;8.238;2024-01-10T00:44:43;-2.82;64.76
66213;SHT31;53015;50.046;8.238;2024-01-10T00:47:09;-2.76;63.23
66213;SHT31;53015;50.046;8.238;2024-01-10T00:49:35;-2.65;62.82
66213;SHT31;53015;50.046;8.238;2024-01-10T00:52:01;-2.43;63.02
66213;SHT31;53015;50.046;8.238;2024-01-10T00:54:28;-2.53;62.99
66213;SHT31;53015;50.046;8.238;2024-01-10T00:56:53;-2.20;62.87
66213;SHT31;53015;50.046;8.238;2024-01-10T00:59:19;-2.36;62.13
66213;SHT31;53015;50.046;8.238;2024-01-10T01:01:44;-2.25;61.94
66213;SHT31;53015;50.046;8.238;2024-01-10T01:04:10;-2.22;61.59
66213;SHT31;53015;50.046;8.238;2024-01-10T01:06:35;-2.50;61.76
66213;SHT31;53015;50.046;8.238;2024-01-10T01:09:01;-2.68;62.64
66213;SHT31;53015;50.046;8.238;2024-01-10T01:11:27;-2.65;62.98
66213;SHT31;53015;50.046;8.238;2024-01-10T01:13:53;-2.76;63.24
66213;SHT31;53015;50.046;8.238;2024-01-10T01:16:18;-2.91;63.61
66213;SHT31;53015;50.046;8.238;2024-01-10T01:18:44;-3.02;64.75
66213;SHT31;53015;50.046;8.238;2024-01-10T01:21:09;-2.92;65.04
66213;SHT31;53015;50.046;8.238;2024-01-10T01:23:35;-3.07;65.27
66213;SHT31;53015;50.046;8.238;2024-01-10T01:26:00;-3.19;65.62
66213;SHT31;53015;50.046;8.238;2024-01-10T01:28:27;-3.16;65.95
66213;SHT31;53015;50.046;8.238;2024-01-10T01:30:53;-3.16;65.81
66213;SHT31;53015;50.046;8.238;2024-01-10T01:33:18;-3.31;66.10
66213;SHT31;53015;50.046;8.238;2024-01-10T01:35:44;-3.38;66.97
66213;SHT31;53015;50.046;8.238;2024-01-10T01:38:12;-3.43;67.38
66213;SHT31;53015;50.046;8.238;2024-01-10T01:40:37;-3.47;67.52
66213;SHT31;53015;50.046;8.238;2024-01-10T01:43:19;-3.47;67.37
66213;SHT31;53015;50.046;8.238;2024-01-10T01:45:46;-3.47;67.94
66213;SHT31;53015;50.046;8.238;2024-01-10T01:48:11;-3.50;67.43
66213;SHT31;53015;50.046;8.238;2024-01-10T01:50:37;-3.43;67.80
66213;SHT31;53015;50.046;8.238;2024-01-10T01:53:03;-3.29;67.50
66213;SHT31;53015;50.046;8.238;2024-01-10T01:55:29;-3.27;67.17
66213;SHT31;53015;50.046;8.238;2024-01-10T01:57:55;-3.21;67.12
66213;SHT31;53015;50.046;8.238;2024-01-10T02:00:21;-3.24;66.88
66213;SHT31;53015;50.046;8.238;2024-01-10T02:02:48;-3.27;67.21
66213;SHT31;53015;50.046;8.238;2024-01-10T02:05:14;-3.40;67.40
66213;SHT31;53015;50.046;8.238;2024-01-10T02:07:40;-3.58;68.33
66213;SHT31;53015;50.046;8.238;2024-01-10T02:10:06;-3.51;68.50
66213;SHT31;53015;50.046;8.238;2024-01-10T02:12:32;-3.67;69.12
66213;SHT31;53015;50.046;8.238;2024-01-10T02:14:58;-3.72;69.43
66213;SHT31;53015;50.046;8.238;2024-01-10T02:17:24;-3.71;69.51
66213;SHT31;53015;50.046;8.238;2024-01-10T02:20:07;-3.67;70.03
66213;SHT31;53015;50.046;8.238;2024-01-10T02:22:33;-3.68;69.66
66213;SHT31;53015;50.046;8.238;2024-01-10T02:25:00;-3.59;69.38
66213;SHT31;53015;50.046;8.238;2024-01-10T02:27:25;-3.44;68.91
66213;SHT31;53015;50.046;8.238;2024-01-10T02:29:52;-3.51;69.29
66213;SHT31;53015;50.046;8.238;2024-01-10T02:32:18;-3.67;70.42
66213;SHT31;53015;50.046;8.238;2024-01-10T02:34:44;-3.74;70.65
66213;SHT31;53015;50.046;8.238;2024-01-10T02:37:09;-3.68;70.64
66213;SHT31;53015;50.046;8.238;2024-01-10T02:39:35;-3.61;70.75
66213;SHT31;53015;50.046;8.238;2024-01-10T02:42:02;-3.85;70.81
66213;SHT31;53015;50.046;8.238;2024-01-10T02:44:27;-4.02;71.50
66213;SHT31;53015;50.046;8.238;2024-01-10T02:46:53;-3.81;71.95
66213;SHT31;53015;50.046;8.238;2024-01-10T02:49:18;-3.88;71.69
66213;SHT31;53015;50.046;8.238;2024-01-10T02:51:44;-3.89;72.00
66213;SHT31;53015;50.046;8.238;2024-01-10T02:54:09;-3.88;72.17
66213;SHT31;53015;50.046;8.238;2024-01-10T02:56:34;-4.00;72.10
66213;SHT31;53015;50.046;8.238;2024-01-10T02:59:01;-4.09;71.58
66213;SHT31;53015;50.046;8.238;2024-01-10T03:01:27;-4.05;72.74
66213;SHT31;53015;50.046;8.238;2024-01-10T03:03:52;-4.09;73.32
66213;SHT31;53015;50.046;8.238;2024-01-10T03:06:18;-4.02;73.14
66213;SHT31;53015;50.046;8.238;2024-01-10T03:08:43;-4.02;73.79
66213;SHT31;53015;50.046;8.238;2024-01-10T03:11:09;-4.03;73.84
66213;SHT31;53015;50.046;8.238;2024-01-10T03:13:34;-4.28;74.27
66213;SHT31;53015;50.046;8.238;2024-01-10T03:16:01;-4.24;74.34
66213;SHT31;53015;50.046;8.238;2024-01-10T03:18:26;-4.40;74.90
66213;SHT31;53015;50.046;8.238;2024-01-10T03:20:52;-4.37;74.94
66213;SHT31;53015;50.046;8.238;2024-01-10T03:23:17;-4.37;75.45
66213;SHT31;53015;50.046;8.238;2024-01-10T03:25:43;-4.35;75.31
66213;SHT31;53015;50.046;8.238;2024-01-10T03:28:08;-4.35;75.72
66213;SHT31;53015;50.046;8.238;2024-01-10T03:30:34;-4.41;75.81
66213;SHT31;53015;50.046;8.238;2024-01-10T03:33:00;-4.43;76.03
66213;SHT31;53015;50.046;8.238;2024-01-10T03:35:26;-4.40;76.50
66213;SHT31;53015;50.046;8.238;2024-01-10T03:37:51;-4.33;75.95
66213;SHT31;53015;50.046;8.238;2024-01-10T03:40:17;-4.43;76.08
66213;SHT31;53015;50.046;8.238;2024-01-10T03:42:42;-4.21;76.33
66213;SHT31;53015;50.046;8.238;2024-01-10T03:45:08;-4.14;75.27
66213;SHT31;53015;50.046;8.238;2024-01-10T03:47:33;-4.30;75.48
66213;SHT31;53015;50.046;8.238;2024-01-10T03:50:00;-4.20;75.95
66213;SHT31;53015;50.046;8.238;2024-01-10T03:52:26;-4.28;75.10
66213;SHT31;53015;50.046;8.238;2024-01-10T03:54:51;-4.21;76.07
66213;SHT31;53015;50.046;8.238;2024-01-10T03:57:17;-4.14;74.98
66213;SHT31;53015;50.046;8.238;2024-01-10T03:59:42;-4.20;75.65
66213;SHT31;53015;50.046;8.238;2024-01-10T04:02:08;-4.27;76.42
66213;SHT31;53015;50.046;8.238;2024-01-10T04:04:36;-4.27;76.05
66213;SHT31;53015;50.046;8.238;2024-01-10T04:07:03;-4.41;75.82
66213;SHT31;53015;50.046;8.238;2024-01-10T04:09:29;-4.52;76.40
66213;SHT31;53015;50.046;8.238;2024-01-10T04:11:54;-4.31;75.82
66213;SHT31;53015;50.046;8.238;2024-01-10T04:14:20;-4.50;76.80
66213;SHT31;53015;50.046;8.238;2024-01-10T04:16:45;-4.64;77.47
66213;SHT31;53015;50.046;8.238;2024-01-10T04:19:11;-4.68;77.08
66213;SHT31;53015;50.046;8.238;2024-01-10T04:21:36;-4.88;77.52
66213;SHT31;53015;50.046;8.238;2024-01-10T04:24:04;-5.01;78.09
66213;SHT31;53015;50.046;8.238;2024-01-10T04:26:29;-4.83;78.13
66213;SHT31;53015;50.046;8.238;2024-01-10T04:28:55;-4.85;79.16
66213;SHT31;53015;50.046;8.238;2024-01-10T04:31:20;-4.76;78.18
66213;SHT31;53015;50.046;8.238;2024-01-10T04:33:46;-4.61;78.64
66213;SHT31;53015;50.046;8.238;2024-01-10T04:36:11;-4.41;78.75
66213;SHT31;53015;50.046;8.238;2024-01-10T04:38:37;-4.55;78.17
66213;SHT31;53015;50.046;8.238;2024-01-10T04:41:04;-4.31;77.83
66213;SHT31;53015;50.046;8.238;2024-01-10T04:43:29;-4.07;76.18
66213;SHT31;53015;50.046;8.238;2024-01-10T04:45:55;-4.09;75.70
66213;SHT31;53015;50.046;8.238;2024-01-10T04:48:20;-3.86;75.42
66213;SHT31;53015;50.046;8.238;2024-01-10T04:50:46;-3.90;76.21
66213;SHT31;53015;50.046;8.238;2024-01-10T04:53:11;-3.89;76.68
66213;SHT31;53015;50.046;8.238;2024-01-10T04:55:37;-3.89;76.71
66213;SHT31;53015;50.046;8.238;2024-01-10T04:58:04;-4.20;76.81
66213;SHT31;53015;50.046;8.238;2024-01-10T05:00:29;-4.23;77.33
66213;SHT31;53015;50.046;8.238;2024-01-10T05:02:55;-4.40;77.45
66213;SHT31;53015;50.046;8.238;2024-01-10T05:05:20;-4.35;77.60
66213;SHT31;53015;50.046;8.238;2024-01-10T05:07:46;-4.20;77.32
66213;SHT31;53015;50.046;8.238;2024-01-10T05:10:11;-4.10;76.84
66213;SHT31;53015;50.046;8.238;2024-01-10T05:12:37;-4.16;77.41
66213;SHT31;53015;50.046;8.238;2024-01-10T05:15:05;-4.17;77.58
66213;SHT31;53015;50.046;8.238;2024-01-10T05:17:31;-4.28;77.76
66213;SHT31;53015;50.046;8.238;2024-01-10T05:19:56;-4.27;77.61
66213;SHT31;53015;50.046;8.238;2024-01-10T05:22:22;-4.18;77.36
66213;SHT31;53015;50.046;8.238;2024-01-10T05:24:47;-4.11;77.87
66213;SHT31;53015;50.046;8.238;2024-01-10T05:27:13;-4.00;78.18
66213;SHT31;53015;50.046;8.238;2024-01-10T05:29:38;-3.92;78.54
66213;SHT31;53015;50.046;8.238;2024-01-10T05:32:06;-3.93;78.26
66213;SHT31;53015;50.046;8.238;2024-01-10T05:34:31;-3.92;78.38
66213;SHT31;53015;50.046;8.238;2024-01-10T05:36:57;-3.86;77.58
66213;SHT31;53015;50.046;8.238;2024-01-10T05:39:22;-3.88;77.50
66213;SHT31;53015;50.046;8.238;2024-01-10T05:41:48;-3.92;78.30
66213;SHT31;53015;50.046;8.238;2024-01-10T05:44:13;-4.02;78.07
66213;SHT31;53015;50.046;8.238;2024-01-10T05:46:38;-4.14;78.14
66213;SHT31;53015;50.046;8.238;2024-01-10T05:49:05;-4.11;78.39
66213;SHT31;53015;50.046;8.238;2024-01-10T05:51:31;-4.06;78.43
66213;SHT31;53015;50.046;8.238;2024-01-10T05:53:56;-4.07;78.56
66213;SHT31;53015;50.046;8.238;2024-01-10T05:56:22;-3.99;78.62
66213;SHT31;53015;50.046;8.238;2024-01-10T05:58:47;-4.10;77.83
66213;SHT31;53015;50.046;8.238;2024-01-10T06:01:13;-3.88;77.66
66213;SHT31;53015;50.046;8.238;2024-01-10T06:03:38;-3.96;76.88
66213;SHT31;53015;50.046;8.238;2024-01-10T06:06:05;-4.00;77.64
66213;SHT31;53015;50.046;8.238;2024-01-10T06:08:31;-3.95;78.72
66213;SHT31;53015;50.046;8.238;2024-01-10T06:10:56;-3.64;77.58
66213;SHT31;53015;50.046;8.238;2024-01-10T06:13:22;-3.82;78.07
66213;SHT31;53015;50.046;8.238;2024-01-10T06:15:47;-3.82;77.77
66213;SHT31;53015;50.046;8.238;2024-01-10T06:18:13;-3.68;78.32
66213;SHT31;53015;50.046;8.238;2024-01-10T06:20:38;-3.82;78.12
66213;SHT31;53015;50.046;8.238;2024-01-10T06:23:05;-3.90;79.15
66213;SHT31;53015;50.046;8.238;2024-01-10T06:25:31;-3.90;79.50
66213;SHT31;53015;50.046;8.238;2024-01-10T06:27:56;-3.90;79.04
66213;SHT31;53015;50.046;8.238;2024-01-10T06:30:22;-3.85;78.66
66213;SHT31;53015;50.046;8.238;2024-01-10T06:32:47;-3.90;78.84
66213;SHT31;53015;50.046;8.238;2024-01-10T06:35:13;-3.92;78.78
66213;SHT31;53015;50.046;8.238;2024-01-10T06:37:39;-3.86;79.21
66213;SHT31;53015;50.046;8.238;2024-01-10T06:40:07;-3.93;79.36
66213;SHT31;53015;50.046;8.238;2024-01-10T06:42:32;-4.00;79.84
66213;SHT31;53015;50.046;8.238;2024-01-10T06:44:58;-4.02;79.88
66213;SHT31;53015;50.046;8.238;2024-01-10T06:47:23;-3.97;80.23
66213;SHT31;53015;50.046;8.238;2024-01-10T06:49:49;-4.02;80.49
66213;SHT31;53015;50.046;8.238;2024-01-10T06:52:14;-4.00;80.59
66213;SHT31;53015;50.046;8.238;2024-01-10T06:54:39;-3.86;80.52
66213;SHT31;53015;50.046;8.238;2024-01-10T06:57:06;-3.92;80.29
66213;SHT31;53015;50.046;8.238;2024-01-10T06:59:32;-3.95;80.31
66213;SHT31;53015;50.046;8.238;2024-01-10T07:01:57;-3.86;80.26
66213;SHT31;53015;50.046;8.238;2024-01-10T07:04:23;-3.79;79.60
66213;SHT31;53015;50.046;8.238;2024-01-10T07:06:48;-3.68;79.29
66213;SHT31;53015;50.046;8.238;2024-01-10T07:09:14;-3.58;79.02
66213;SHT31;53015;50.046;8.238;2024-01-10T07:11:39;-3.67;79.38
66213;SHT31;53015;50.046;8.238;2024-01-10T07:14:06;-3.59;79.14
66213;SHT31;53015;50.046;8.238;2024-01-10T07:16:32;-3.59;79.42
66213;SHT31;53015;50.046;8.238;2024-01-10T07:18:57;-3.47;78.73
66213;SHT31;53015;50.046;8.238;2024-01-10T07:21:23;-3.44;78.82
66213;SHT31;53015;50.046;8.238;2024-01-10T07:23:48;-3.46;79.14
66213;SHT31;53015;50.046;8.238;2024-01-10T07:26:13;-3.46;79.31
66213;SHT31;53015;50.046;8.238;2024-01-10T07:28:39;-3.40;78.78
66213;SHT31;53015;50.046;8.238;2024-01-10T07:31:06;-3.50;79.44
66213;SHT31;53015;50.046;8.238;2024-01-10T07:33:32;-3.40;79.29
66213;SHT31;53015;50.046;8.238;2024-01-10T07:35:57;-3.36;79.47
66213;SHT31;53015;50.046;8.238;2024-01-10T07:38:23;-3.37;79.46
66213;SHT31;53015;50.046;8.238;2024-01-10T07:40:48;-3.24;79.79
66213;SHT31;53015;50.046;8.238;2024-01-10T07:43:14;-3.29;79.23
66213;SHT31;53015;50.046;8.238;2024-01-10T07:45:39;-3.34;79.56
66213;SHT31;53015;50.046;8.238;2024-01-10T07:48:07;-3.33;79.63
66213;SHT31;53015;50.046;8.238;2024-01-10T07:50:33;-3.34;79.49
66213;SHT31;53015;50.046;8.238;2024-01-10T07:52:58;-3.19;79.31
66213;SHT31;53015;50.046;8.238;2024-01-10T07:55:23;-3.07;79.22
66213;SHT31;53015;50.046;8.238;2024-01-10T07:57:49;-3.03;78.91
66213;SHT31;53015;50.046;8.238;2024-01-10T08:00:15;-3.06;79.08
66213;SHT31;53015;50.046;8.238;2024-01-10T08:02:41;-2.92;79.04
66213;SHT31;53015;50.046;8.238;2024-01-10T08:05:08;-2.99;78.02
66213;SHT31;53015;50.046;8.238;2024-01-10T08:07:34;-2.97;77.32
66213;SHT31;53015;50.046;8.238;2024-01-10T08:09:59;-2.99;76.45
66213;SHT31;53015;50.046;8.238;2024-01-10T08:12:25;-2.89;75.90
66213;SHT31;53015;50.046;8.238;2024-01-10T08:14:51;-2.81;74.48
66213;SHT31;53015;50.046;8.238;2024-01-10T08:17:16;-2.68;74.10
66213;SHT31;53015;50.046;8.238;2024-01-10T08:19:42;-2.51;74.13
66213;SHT31;53015;50.046;8.238;2024-01-10T08:22:09;-2.55;75.15
66213;SHT31;53015;50.046;8.238;2024-01-10T08:24:34;-2.54;75.47
66213;SHT31;53015;50.046;8.238;2024-01-10T08:26:59;-2.45;75.21
66213;SHT31;53015;50.046;8.238;2024-01-10T08:29:25;-2.43;74.81
66213;SHT31;53015;50.046;8.238;2024-01-10T08:31:50;-2.48;74.65
66213;SHT31;53015;50.046;8.238;2024-01-10T08:34:16;-2.41;74.96
66213;SHT31;53015;50.046;8.238;2024-01-10T08:36:41;-2.27;75.24
66213;SHT31;53015;50.046;8.238;2024-01-10T08:39:08;-2.23;75.25
66213;SHT31;53015;50.046;8.238;2024-01-10T08:41:33;-2.13;75.09
66213;SHT31;53015;50.046;8.238;2024-01-10T08:43:59;-1.99;73.88
66213;SHT31;53015;50.046;8.238;2024-01-10T08:46:24;-1.89;73.99
66213;SHT31;53015;50.046;8.238;2024-01-10T08:48:50;-1.79;73.34
66213;SHT31;53015;50.046;8.238;2024-01-10T08:51:16;-1.70;70.31
66213;SHT31;53015;50.046;8.238;2024-01-10T08:53:41;-1.54;69.07
66213;SHT31;53015;50.046;8.238;2024-01-10T08:56:08;-1.62;65.36
66213;SHT31;53015;50.046;8.238;2024-01-10T08:58:34;-1.67;63.78
66213;SHT31;53015;50.046;8.238;2024-01-10T09:00:59;-1.50;63.81
66213;SHT31;53015;50.046;8.238;2024-01-10T09:03:25;-1.37;63.53
66213;SHT31;53015;50.046;8.238;2024-01-10T09:05:50;-1.20;62.96
66213;SHT31;53015;50.046;8.238;2024-01-10T09:08:16;-1.26;62.17
66213;SHT31;53015;50.046;8.238;2024-01-10T09:10:41;-1.16;61.82
66213;SHT31;53015;50.046;8.238;2024-01-10T09:13:08;-1.24;61.54
66213;SHT31;53015;50.046;8.238;2024-01-10T09:15:33;-1.37;59.87
66213;SHT31;53015;50.046;8.238;2024-01-10T09:17:59;-1.32;60.43
66213;SHT31;53015;50.046;8.238;2024-01-10T09:20:24;-1.37;60.97
66213;SHT31;53015;50.046;8.238;2024-01-10T09:22:50;-1.33;60.43
66213;SHT31;53015;50.046;8.238;2024-01-10T09:25:16;-1.27;60.57
66213;SHT31;53015;50.046;8.238;2024-01-10T09:27:41;-1.07;60.76
66213;SHT31;53015;50.046;8.238;2024-01-10T09:30:09;-1.06;59.64
66213;SHT31;53015;50.046;8.238;2024-01-10T09:32:34;-0.96;60.10
66213;SHT31;53015;50.046;8.238;2024-01-10T09:35:00;-0.93;59.29
66213;SHT31;53015;50.046;8.238;2024-01-10T09:37:25;-0.92;59.00
66213;SHT31;53015;50.046;8.238;2024-01-10T09:39:51;-0.91;58.48
66213;SHT31;53015;50.046;8.238;2024-01-10T09:42:16;-0.89;59.03
66213;SHT31;53015;50.046;8.238;2024-01-10T09:44:42;-0.76;59.42
66213;SHT31;53015;50.046;8.238;2024-01-10T09:47:09;-0.64;58.62
66213;SHT31;53015;50.046;8.238;2024-01-10T09:49:40;-0.64;57.45
66213;SHT31;53015;50.046;8.238;2024-01-10T09:52:10;-0.60;58.34
66213;SHT31;53015;50.046;8.238;2024-01-10T09:54:38;-0.69;57.64
66213;SHT31;53015;50.046;8.238;2024-01-10T09:57:05;-0.33;57.78
66213;SHT31;53015;50.046;8.238;2024-01-10T09:59:30;-0.36;57.76
66213;SHT31;53015;50.046;8.238;2024-01-10T10:01:57;-0.27;58.19
66213;SHT31;53015;50.046;8.238;2024-01-10T10:04:27;-0.30;57.82
66213;SHT31;53015;50.046;8.238;2024-01-10T10:06:58;-0.16;58.21
66213;SHT31;53015;50.046;8.238;2024-01-10T10:09:25;-0.14;57.85
66213;SHT31;53015;50.046;8.238;2024-01-10T10:11:53;-0.13;57.33
66213;SHT31;53015;50.046;8.238;2024-01-10T10:14:19;-0.34;56.66
66213;SHT31;53015;50.046;8.238;2024-01-10T10:16:44;-0.45;56.93
66213;SHT31;53015;50.046;8.238;2024-01-10T10:19:10;-0.31;57.43
66213;SHT31;53015;50.046;8.238;2024-01-10T10:21:37;-0.37;57.51
66213;SHT31;53015;50.046;8.238;2024-01-10T10:24:03;-0.40;57.21
66213;SHT31;53015;50.046;8.238;2024-01-10T10:26:29;-0.48;57.40
66213;SHT31;53015;50.046;8.238;2024-01-10T10:28:57;-0.54;57.85
66213;SHT31;53015;50.046;8.238;2024-01-10T10:31:23;-0.56;58.50
66213;SHT31;53015;50.046;8.238;2024-01-10T10:33:49;-0.61;58.36
66213;SHT31;53015;50.046;8.238;2024-01-10T10:36:15;-0.57;58.22
66213;SHT31;53015;50.046;8.238;2024-01-10T10:38:42;-0.38;58.34
66213;SHT31;53015;50.046;8.238;2024-01-10T10:41:08;-0.42;57.96
66213;SHT31;53015;50.046;8.238;2024-01-10T10:43:34;-0.41;58.12
66213;SHT31;53015;50.046;8.238;2024-01-10T10:46:00;-0.38;58.36
66213;SHT31;53015;50.046;8.238;2024-01-10T10:48:26;-0.34;58.05
66213;SHT31;53015;50.046;8.238;2024-01-10T10:50:59;-0.37;58.23
66213;SHT31;53015;50.046;8.238;2024-01-10T10:53:27;-0.33;58.29
66213;SHT31;53015;50.046;8.238;2024-01-10T10:55:55;-0.47;57.56
66213;SHT31;53015;50.046;8.238;2024-01-10T10:58:22;-0.41;57.89
66213;SHT31;53015;50.046;8.238;2024-01-10T11:00:48;-0.19;58.26
66213;SHT31;53015;50.046;8.238;2024-01-10T11:03:14;-0.13;57.77
66213;SHT31;53015;50.046;8.238;2024-01-10T11:05:41;0.07;57.97
66213;SHT31;53015;50.046;8.238;2024-01-10T11:08:08;-0.03;57.10
66213;SHT31;53015;50.046;8.238;2024-01-10T11:10:37;0.28;57.33
66213;SHT31;53015;50.046;8.238;2024-01-10T11:13:19;0.21;56.87
66213;SHT31;53015;50.046;8.238;2024-01-10T11:16:08;0.32;56.97
66213;SHT31;53015;50.046;8.238;2024-01-10T11:18:52;0.19;56.80
66213;SHT31;53015;50.046;8.238;2024-01-10T11:21:23;0.39;57.59
66213;SHT31;53015;50.046;8.238;2024-01-10T11:23:56;0.18;56.50
66213;SHT31;53015;50.046;8.238;2024-01-10T11:26:23;0.25;56.47
66213;SHT31;53015;50.046;8.238;2024-01-10T11:28:50;0.39;56.09
66213;SHT31;53015;50.046;8.238;2024-01-10T11:31:16;0.36;55.62
66213;SHT31;53015;50.046;8.238;2024-01-10T11:33:52;0.42;56.00
66213;SHT31;53015;50.046;8.238;2024-01-10T11:36:18;0.50;55.71
66213;SHT31;53015;50.046;8.238;2024-01-10T11:38:48;0.72;54.99
66213;SHT31;53015;50.046;8.238;2024-01-10T11:41:20;0.80;54.64
66213;SHT31;53015;50.046;8.238;2024-01-10T11:43:46;0.84;54.48
66213;SHT31;53015;50.046;8.238;2024-01-10T11:46:13;0.84;54.26
66213;SHT31;53015;50.046;8.238;2024-01-10T11:48:38;0.77;54.67
66213;SHT31;53015;50.046;8.238;2024-01-10T11:51:04;0.81;55.78
66213;SHT31;53015;50.046;8.238;2024-01-10T11:53:43;0.72;55.35
66213;SHT31;53015;50.046;8.238;2024-01-10T11:56:09;0.80;55.56
66213;SHT31;53015;50.046;8.238;2024-01-10T11:58:52;0.69;55.47
66213;SHT31;53015;50.046;8.238;2024-01-10T12:01:19;0.70;55.52
66213;SHT31;53015;50.046;8.238;2024-01-10T12:03:44;0.74;55.69
66213;SHT31;53015;50.046;8.238;2024-01-10T12:06:11;0.70;56.00
66213;SHT31;53015;50.046;8.238;2024-01-10T12:08:36;0.49;55.92
66213;SHT31;53015;50.046;8.238;2024-01-10T12:11:02;0.46;55.52
66213;SHT31;53015;50.046;8.238;2024-01-10T12:13:27;0.64;55.45
66213;SHT31;53015;50.046;8.238;2024-01-10T12:15:53;0.74;55.86
66213;SHT31;53015;50.046;8.238;2024-01-10T12:18:20;0.72;56.07
66213;SHT31;53015;50.046;8.238;2024-01-10T12:20:45;0.81;54.92
66213;SHT31;53015;50.046;8.238;2024-01-10T12:23:11;0.97;55.48
66213;SHT31;53015;50.046;8.238;2024-01-10T12:25:36;1.08;55.75
66213;SHT31;53015;50.046;8.238;2024-01-10T12:28:02;1.24;55.05
66213;SHT31;53015;50.046;8.238;2024-01-10T12:30:28;1.42;54.16
66213;SHT31;53015;50.046;8.238;2024-01-10T12:32:53;1.62;54.93
66213;SHT31;53015;50.046;8.238;2024-01-10T12:35:20;1.57;54.70
66213;SHT31;53015;50.046;8.238;2024-01-10T12:37:53;1.64;55.10
66213;SHT31;53015;50.046;8.238;2024-01-10T12:40:19;1.56;55.05
66213;SHT31;53015;50.046;8.238;2024-01-10T12:42:44;1.32;55.23
66213;SHT31;53015;50.046;8.238;2024-01-10T12:45:20;1.15;54.97
66213;SHT31;53015;50.046;8.238;2024-01-10T12:47:46;0.92;55.15
66213;SHT31;53015;50.046;8.238;2024-01-10T12:50:11;0.80;56.12
66213;SHT31;53015;50.046;8.238;2024-01-10T12:52:38;0.94;55.85
66213;SHT31;53015;50.046;8.238;2024-01-10T12:55:04;0.83;55.53
66213;SHT31;53015;50.046;8.238;2024-01-10T12:57:29;0.70;55.20
66213;SHT31;53015;50.046;8.238;2024-01-10T12:59:55;0.62;55.63
66213;SHT31;53015;50.046;8.238;2024-01-10T13:02:20;0.49;56.33
66213;SHT31;53015;50.046;8.238;2024-01-10T13:04:46;0.59;56.98
66213;SHT31;53015;50.046;8.238;2024-01-10T13:07:11;0.70;57.27
66213;SHT31;53015;50.046;8.238;2024-01-10T13:09:38;0.74;57.18
66213;SHT31;53015;50.046;8.238;2024-01-10T13:12:04;0.74;57.58
66213;SHT31;53015;50.046;8.238;2024-01-10T13:14:30;0.56;57.28
66213;SHT31;53015;50.046;8.238;2024-01-10T13:16:56;0.74;57.18
66213;SHT31;53015;50.046;8.238;2024-01-10T13:19:21;0.45;57.50
66213;SHT31;53015;50.046;8.238;2024-01-10T13:21:47;0.63;58.21
66213;SHT31;53015;50.046;8.238;2024-01-10T13:24:12;0.69;58.25
66213;SHT31;53015;50.046;8.238;2024-01-10T13:26:39;0.70;58.69
66213;SHT31;53015;50.046;8.238;2024-01-10T13:29:04;0.76;58.27
66213;SHT31;53015;50.046;8.238;2024-01-10T13:31:30;0.73;58.11
66213;SHT31;53015;50.046;8.238;2024-01-10T13:33:55;0.69;58.50
66213;SHT31;53015;50.046;8.238;2024-01-10T13:36:21;0.56;58.58
66213;SHT31;53015;50.046;8.238;2024-01-10T13:38:46;0.52;58.48
66213;SHT31;53015;50.046;8.238;2024-01-10T13:41:12;0.39;58.84
66213;SHT31;53015;50.046;8.238;2024-01-10T13:43:39;0.36;58.49
66213;SHT31;53015;50.046;8.238;2024-01-10T13:46:04;0.24;58.91
66213;SHT31;53015;50.046;8.238;2024-01-10T13:48:30;0.26;58.73
66213;SHT31;53015;50.046;8.238;2024-01-10T13:50:55;0.29;59.47
66213;SHT31;53015;50.046;8.238;2024-01-10T13:53:21;0.22;58.92
66213;SHT31;53015;50.046;8.238;2024-01-10T13:55:46;0.32;59.23
66213;SHT31;53015;50.046;8.238;2024-01-10T13:58:12;0.35;59.24
66213;SHT31;53015;50.046;8.238;2024-01-10T14:00:39;0.49;59.11
66213;SHT31;53015;50.046;8.238;2024-01-10T14:03:05;0.32;59.16
66213;SHT31;53015;50.046;8.238;2024-01-10T14:05:31;0.36;59.66
66213;SHT31;53015;50.046;8.238;2024-01-10T14:07:56;0.38;59.53
66213;SHT31;53015;50.046;8.238;2024-01-10T14:10:22;0.41;59.10
66213;SHT31;53015;50.046;8.238;2024-01-10T14:12:47;0.33;59.12
66213;SHT31;53015;50.046;8.238;2024-01-10T14:15:13;0.24;59.29
66213;SHT31;53015;50.046;8.238;2024-01-10T14:17:40;0.32;59.57
66213;SHT31;53015;50.046;8.238;2024-01-10T14:20:07;0.39;59.82
66213;SHT31;53015;50.046;8.238;2024-01-10T14:22:33;0.45;59.97
66213;SHT31;53015;50.046;8.238;2024-01-10T14:24:58;0.42;59.90
66213;SHT31;53015;50.046;8.238;2024-01-10T14:27:24;0.32;59.67
66213;SHT31;53015;50.046;8.238;2024-01-10T14:29:49;0.29;60.02
66213;SHT31;53015;50.046;8.238;2024-01-10T14:32:15;0.43;60.20
66213;SHT31;53015;50.046;8.238;2024-01-10T14:34:42;0.39;60.25
66213;SHT31;53015;50.046;8.238;2024-01-10T14:37:07;0.36;60.58
66213;SHT31;53015;50.046;8.238;2024-01-10T14:39:33;0.26;60.31
66213;SHT31;53015;50.046;8.238;2024-01-10T14:41:58;0.25;60.55
66213;SHT31;53015;50.046;8.238;2024-01-10T14:44:24;0.18;60.07
66213;SHT31;53015;50.046;8.238;2024-01-10T14:46:49;0.26;60.28
66213;SHT31;53015;50.046;8.238;2024-01-10T14:49:14;0.32;60.74
66213;SHT31;53015;50.046;8.238;2024-01-10T14:51:41;0.29;60.67
66213;SHT31;53015;50.046;8.238;2024-01-10T14:54:07;0.42;60.90
66213;SHT31;53015;50.046;8.238;2024-01-10T14:56:32;0.52;61.05
66213;SHT31;53015;50.046;8.238;2024-01-10T14:58:58;0.50;60.75
66213;SHT31;53015;50.046;8.238;2024-01-10T15:01:23;0.53;60.93
66213;SHT31;53015;50.046;8.238;2024-01-10T15:03:48;0.32;60.72
66213;SHT31;53015;50.046;8.238;2024-01-10T15:06:14;0.21;61.16
66213;SHT31;53015;50.046;8.238;2024-01-10T15:08:41;0.26;61.70
66213;SHT31;53015;50.046;8.238;2024-01-10T15:11:07;0.17;61.51
66213;SHT31;53015;50.046;8.238;2024-01-10T15:13:32;0.21;61.75
66213;SHT31;53015;50.046;8.238;2024-01-10T15:15:58;0.17;61.31
66213;SHT31;53015;50.046;8.238;2024-01-10T15:18:23;0.04;61.58
66213;SHT31;53015;50.046;8.238;2024-01-10T15:20:49;0.08;61.82
66213;SHT31;53015;50.046;8.238;2024-01-10T15:23:14;0.01;61.67
66213;SHT31;53015;50.046;8.238;2024-01-10T15:25:41;0.01;62.01
66213;SHT31;53015;50.046;8.238;2024-01-10T15:28:07;-0.03;61.87